createdAt,value
2019-06-15T00:02:13.356Z,17.50
2019-06-15T00:04:41.845Z,17.50
2019-06-15T00:07:10.474Z,17.50
2019-06-15T00:09:39.044Z,17.40
2019-06-15T00:12:07.487Z,17.50
2019-06-15T00:14:36.025Z,17.50
2019-06-15T00:17:04.723Z,17.50
2019-06-15T00:19:33.207Z,17.50
2019-06-15T00:22:01.803Z,17.50
2019-06-15T00:24:35.413Z,17.50
2019-06-15T00:27:00.544Z,17.60
2019-06-15T00:29:29.041Z,17.60
2019-06-15T00:31:57.505Z,17.50
2019-06-15T00:34:25.947Z,17.50
2019-06-15T00:36:54.536Z,17.60
2019-06-15T00:39:23.007Z,17.60
2019-06-15T00:41:51.473Z,17.60
2019-06-15T00:44:19.977Z,17.50
2019-06-15T00:46:48.506Z,17.50
2019-06-15T00:49:17.080Z,17.50
2019-06-15T00:51:45.687Z,17.50
2019-06-15T00:54:14.221Z,17.50
2019-06-15T00:56:42.689Z,17.50
2019-06-15T00:59:11.405Z,17.50
2019-06-15T01:01:39.927Z,17.60
2019-06-15T01:04:08.377Z,17.70
2019-06-15T01:06:36.884Z,17.70
2019-06-15T01:09:06.286Z,17.70
2019-06-15T01:11:34.877Z,17.70
2019-06-15T01:14:03.813Z,17.70
2019-06-15T01:16:32.392Z,17.70
2019-06-15T01:19:00.967Z,17.80
2019-06-15T01:21:29.461Z,17.90
2019-06-15T01:23:57.999Z,17.80
2019-06-15T01:26:26.527Z,17.80
2019-06-15T01:28:55.096Z,17.80
2019-06-15T01:31:23.553Z,17.80
2019-06-15T01:33:52.205Z,17.80
2019-06-15T01:36:20.920Z,17.90
2019-06-15T01:38:49.384Z,17.80
2019-06-15T01:41:17.845Z,17.80
2019-06-15T01:43:46.340Z,17.80
2019-06-15T01:46:14.801Z,17.80
2019-06-15T01:48:43.248Z,17.70
2019-06-15T01:51:11.764Z,17.70
2019-06-15T01:53:40.272Z,17.70
2019-06-15T01:56:08.714Z,17.70
2019-06-15T01:58:37.214Z,17.70
2019-06-15T02:01:05.989Z,17.60
2019-06-15T02:03:34.547Z,17.60
2019-06-15T02:06:03.255Z,17.60
2019-06-15T02:08:31.717Z,17.60
2019-06-15T02:11:00.248Z,17.50
2019-06-15T02:13:28.729Z,17.50
2019-06-15T02:15:57.243Z,17.50
2019-06-15T02:18:25.766Z,17.50
2019-06-15T02:20:54.407Z,17.40
2019-06-15T02:23:22.917Z,17.40
2019-06-15T02:25:51.369Z,17.40
2019-06-15T02:28:19.855Z,17.40
2019-06-15T02:30:48.391Z,17.40
2019-06-15T02:33:17.014Z,17.40
2019-06-15T02:35:45.652Z,17.40
2019-06-15T02:38:14.135Z,17.40
2019-06-15T02:40:42.660Z,17.40
2019-06-15T02:43:11.239Z,17.40
2019-06-15T02:45:39.842Z,17.40
2019-06-15T02:48:08.442Z,17.40
2019-06-15T02:50:37.605Z,17.40
2019-06-15T02:53:06.139Z,17.50
2019-06-15T02:55:34.655Z,17.50
2019-06-15T02:58:03.232Z,17.50
2019-06-15T03:00:55.418Z,17.50
2019-06-15T03:03:23.928Z,17.50
2019-06-15T03:05:52.943Z,17.60
2019-06-15T03:08:22.218Z,17.50
2019-06-15T03:10:51.121Z,17.50
2019-06-15T03:13:19.950Z,17.50
2019-06-15T03:15:48.946Z,17.50
2019-06-15T03:18:17.456Z,17.50
2019-06-15T03:20:45.985Z,17.60
2019-06-15T03:23:14.435Z,17.60
2019-06-15T03:26:05.800Z,17.60
2019-06-15T03:28:32.569Z,17.70
2019-06-15T03:31:01.058Z,17.70
2019-06-15T03:33:29.712Z,17.70
2019-06-15T03:35:58.229Z,17.70
2019-06-15T03:38:26.693Z,17.70
2019-06-15T03:40:56.191Z,17.70
2019-06-15T03:43:25.681Z,17.70
2019-06-15T03:45:54.291Z,17.70
2019-06-15T03:48:22.838Z,17.70
2019-06-15T03:50:51.350Z,17.80
2019-06-15T03:53:19.810Z,17.80
2019-06-15T03:55:48.378Z,17.90
2019-06-15T03:58:16.857Z,17.90
2019-06-15T04:00:50.845Z,18.00
2019-06-15T04:03:19.416Z,18.10
2019-06-15T04:05:47.981Z,18.20
2019-06-15T04:08:16.529Z,18.20
2019-06-15T04:10:45.131Z,18.30
2019-06-15T04:13:13.594Z,18.30
2019-06-15T04:15:42.058Z,18.40
2019-06-15T04:18:10.621Z,18.50
2019-06-15T04:20:39.084Z,18.50
2019-06-15T04:23:07.637Z,18.60
2019-06-15T04:25:36.169Z,18.60
2019-06-15T04:28:04.762Z,18.60
2019-06-15T04:30:33.293Z,18.70
2019-06-15T04:33:01.809Z,18.70
2019-06-15T04:35:30.338Z,18.70
2019-06-15T04:37:58.893Z,18.70
2019-06-15T04:40:27.448Z,18.80
2019-06-15T04:42:55.970Z,18.90
2019-06-15T04:45:24.419Z,18.90
2019-06-15T04:47:52.988Z,19.00
2019-06-15T04:50:21.522Z,19.10
2019-06-15T04:52:49.980Z,19.10
2019-06-15T04:55:18.565Z,19.20
2019-06-15T04:57:47.105Z,19.30
2019-06-15T05:00:15.834Z,19.30
2019-06-15T05:02:44.413Z,19.30
2019-06-15T05:05:13.112Z,19.50
2019-06-15T05:07:41.566Z,19.50
2019-06-15T05:10:10.325Z,19.60
2019-06-15T05:12:38.772Z,19.60
2019-06-15T05:15:08.364Z,19.60
2019-06-15T05:17:36.884Z,19.70
2019-06-15T05:20:06.782Z,19.80
2019-06-15T05:22:35.296Z,19.90
2019-06-15T05:25:05.688Z,20.00
2019-06-15T05:27:34.325Z,20.10
2019-06-15T05:30:03.457Z,20.20
2019-06-15T05:32:32.031Z,20.20
2019-06-15T05:35:00.496Z,20.10
2019-06-15T05:37:28.951Z,20.20
2019-06-15T05:39:57.461Z,20.20
2019-06-15T05:42:25.979Z,20.40
2019-06-15T05:44:54.443Z,20.50
2019-06-15T05:47:22.935Z,20.70
2019-06-15T05:49:51.469Z,20.90
2019-06-15T05:52:19.980Z,21.00
2019-06-15T05:54:48.539Z,21.00
2019-06-15T05:57:21.558Z,20.90
2019-06-15T05:59:47.183Z,20.80
2019-06-15T06:02:15.680Z,21.00
2019-06-15T06:04:44.119Z,20.90
2019-06-15T06:07:12.658Z,21.00
2019-06-15T06:09:41.182Z,21.00
2019-06-15T06:12:09.706Z,20.90
2019-06-15T06:14:38.177Z,20.80
2019-06-15T06:17:06.731Z,20.80
2019-06-15T06:19:35.204Z,20.90
2019-06-15T06:22:03.863Z,21.00
2019-06-15T06:24:32.530Z,21.10
2019-06-15T06:27:01.073Z,21.20
2019-06-15T06:29:29.581Z,21.30
2019-06-15T06:31:58.083Z,21.40
2019-06-15T06:34:26.537Z,21.60
2019-06-15T06:36:55.067Z,21.70
2019-06-15T06:39:23.586Z,21.80
2019-06-15T06:41:52.227Z,21.90
2019-06-15T06:44:20.840Z,22.10
2019-06-15T06:46:49.331Z,22.20
2019-06-15T06:49:17.804Z,22.20
2019-06-15T06:51:46.252Z,22.40
2019-06-15T06:54:14.823Z,22.30
2019-06-15T06:56:43.351Z,22.30
2019-06-15T06:59:11.882Z,22.30
2019-06-15T07:01:40.561Z,22.30
2019-06-15T07:04:09.011Z,22.20
2019-06-15T07:06:37.555Z,22.20
2019-06-15T07:09:06.573Z,22.20
2019-06-15T07:11:35.037Z,22.30
2019-06-15T07:14:03.575Z,22.20
2019-06-15T07:16:32.091Z,22.40
2019-06-15T07:19:00.555Z,22.50
2019-06-15T07:21:29.052Z,22.60
2019-06-15T07:23:57.589Z,22.70
2019-06-15T07:26:26.080Z,22.90
2019-06-15T07:28:54.536Z,23.00
2019-06-15T07:31:23.097Z,23.00
2019-06-15T07:33:51.628Z,23.20
2019-06-15T07:36:20.824Z,23.40
2019-06-15T07:38:49.402Z,23.40
2019-06-15T07:41:17.932Z,23.50
2019-06-15T07:43:46.521Z,23.40
2019-06-15T07:46:15.073Z,23.50
2019-06-15T07:48:43.543Z,23.40
2019-06-15T07:51:12.081Z,23.50
2019-06-15T07:53:40.596Z,23.60
2019-06-15T07:56:09.120Z,23.50
2019-06-15T07:58:37.641Z,23.60
2019-06-15T08:01:06.208Z,23.60
2019-06-15T08:03:34.748Z,23.60
2019-06-15T08:06:03.533Z,23.70
2019-06-15T08:08:32.023Z,23.50
2019-06-15T08:11:00.486Z,23.60
2019-06-15T08:13:29.095Z,23.60
2019-06-15T08:15:57.703Z,23.50
2019-06-15T08:18:26.708Z,23.50
2019-06-15T08:20:55.235Z,23.50
2019-06-15T08:23:23.719Z,23.50
2019-06-15T08:25:52.242Z,23.40
2019-06-15T08:28:20.785Z,23.30
2019-06-15T08:30:49.431Z,23.30
2019-06-15T08:33:18.160Z,23.40
2019-06-15T08:35:46.608Z,23.30
2019-06-15T08:38:15.187Z,23.30
2019-06-15T08:40:43.718Z,23.10
2019-06-15T08:43:12.247Z,23.00
2019-06-15T08:45:41.018Z,23.10
2019-06-15T08:48:09.714Z,23.10
2019-06-15T08:50:38.281Z,23.10
2019-06-15T08:53:07.231Z,23.10
2019-06-15T08:55:35.772Z,23.10
2019-06-15T08:58:04.504Z,23.10
2019-06-15T09:00:34.003Z,23.00
2019-06-15T09:03:02.869Z,23.10
2019-06-15T09:05:31.412Z,23.30
2019-06-15T09:08:00.195Z,23.20
2019-06-15T09:10:28.819Z,23.40
2019-06-15T09:12:57.880Z,23.60
2019-06-15T09:15:44.286Z,24.00
2019-06-15T09:18:13.540Z,24.10
2019-06-15T09:20:41.966Z,23.80
2019-06-15T09:23:10.478Z,23.90
2019-06-15T09:25:39.003Z,24.10
2019-06-15T09:28:07.459Z,24.20
2019-06-15T09:30:36.109Z,24.40
2019-06-15T09:33:05.157Z,24.20
2019-06-15T09:35:33.632Z,24.40
2019-06-15T09:38:02.481Z,24.40
2019-06-15T09:40:31.300Z,24.50
2019-06-15T09:42:59.764Z,24.40
2019-06-15T09:45:28.250Z,24.40
2019-06-15T09:47:56.718Z,24.30
2019-06-15T09:50:25.308Z,24.40
2019-06-15T09:52:53.818Z,24.50
2019-06-15T09:55:22.304Z,24.20
2019-06-15T09:57:50.768Z,24.20
2019-06-15T10:00:19.835Z,24.10
2019-06-15T10:02:49.236Z,23.90
2019-06-15T10:05:17.836Z,24.00
2019-06-15T10:07:46.563Z,24.10
2019-06-15T10:10:15.268Z,24.00
2019-06-15T10:12:43.728Z,24.00
2019-06-15T10:15:13.001Z,24.00
2019-06-15T10:17:41.451Z,24.00
2019-06-15T10:20:10.870Z,23.80
2019-06-15T10:22:39.376Z,23.60
2019-06-15T10:25:27.189Z,23.60
2019-06-15T10:27:55.857Z,23.50
2019-06-15T10:30:24.388Z,23.50
2019-06-15T10:32:52.850Z,23.30
2019-06-15T10:35:21.439Z,23.30
2019-06-15T10:37:50.000Z,23.10
2019-06-15T10:40:18.883Z,23.00
2019-06-15T10:42:47.407Z,22.90
2019-06-15T10:45:16.302Z,22.90
2019-06-15T10:47:44.989Z,22.60
2019-06-15T10:50:13.736Z,22.50
2019-06-15T10:52:42.300Z,22.40
2019-06-15T10:55:11.209Z,22.40
2019-06-15T10:57:39.773Z,22.30
2019-06-15T11:00:10.769Z,22.20
2019-06-15T11:02:39.537Z,22.00
2019-06-15T11:05:09.409Z,22.00
2019-06-15T11:07:37.946Z,21.90
2019-06-15T11:10:12.341Z,21.80
2019-06-15T11:12:46.393Z,21.70
2019-06-15T11:15:11.833Z,21.60
2019-06-15T11:17:40.367Z,21.60
2019-06-15T11:20:09.190Z,21.40
2019-06-15T11:22:37.719Z,21.30
2019-06-15T11:25:07.399Z,21.20
2019-06-15T11:27:36.151Z,21.20
2019-06-15T11:30:13.466Z,21.20
2019-06-15T11:32:36.713Z,21.00
2019-06-15T11:35:06.598Z,20.90
2019-06-15T11:37:35.123Z,20.80
2019-06-15T11:40:06.898Z,20.50
2019-06-15T11:42:35.421Z,20.30
2019-06-15T11:45:07.826Z,20.30
2019-06-15T11:47:36.674Z,20.20
2019-06-15T11:50:06.248Z,20.10
2019-06-15T11:52:34.716Z,20.00
2019-06-15T11:55:04.592Z,19.70
2019-06-15T11:57:33.088Z,19.40
2019-06-15T12:00:01.573Z,19.30
2019-06-15T12:02:30.110Z,19.30
2019-06-15T12:04:58.975Z,19.20
2019-06-15T12:07:27.579Z,19.10
2019-06-15T12:09:56.114Z,19.00
2019-06-15T12:12:24.606Z,19.00
2019-06-15T12:14:53.235Z,18.80
2019-06-15T12:17:21.757Z,18.70
2019-06-15T12:19:50.238Z,18.60
2019-06-15T12:22:18.753Z,18.40
2019-06-15T12:24:47.236Z,18.40
2019-06-15T12:27:35.159Z,18.30
2019-06-15T12:30:08.135Z,18.20
2019-06-15T12:32:36.657Z,18.20
2019-06-15T12:35:06.782Z,18.10
2019-06-15T12:37:35.247Z,17.90
2019-06-15T12:40:05.809Z,17.80
2019-06-15T12:42:34.802Z,17.70
2019-06-15T12:45:03.696Z,17.50
2019-06-15T12:47:32.241Z,17.50
2019-06-15T12:50:00.839Z,17.40
2019-06-15T12:52:29.356Z,17.30
2019-06-15T12:54:57.881Z,17.20
2019-06-15T12:57:26.476Z,17.20
2019-06-15T12:59:54.935Z,17.10
2019-06-15T13:02:23.400Z,17.10
2019-06-15T13:04:51.950Z,17.10
2019-06-15T13:07:20.415Z,17.10
2019-06-15T13:09:48.980Z,17.10
2019-06-15T13:12:17.487Z,17.00
2019-06-15T13:14:45.927Z,17.00
2019-06-15T13:17:14.398Z,16.90
2019-06-15T13:19:42.946Z,16.90
2019-06-15T13:22:11.414Z,16.90
2019-06-15T13:24:39.960Z,16.80
2019-06-15T13:27:08.572Z,16.80
2019-06-15T13:29:37.052Z,16.80
2019-06-15T13:32:05.956Z,16.80
2019-06-15T13:34:34.446Z,16.80
2019-06-15T13:37:02.914Z,16.80
2019-06-15T13:39:31.455Z,16.70
2019-06-15T13:41:59.953Z,16.60
2019-06-15T13:44:28.400Z,16.60
2019-06-15T13:46:56.852Z,16.70
2019-06-15T13:49:25.407Z,16.70
2019-06-15T13:51:53.907Z,16.70
2019-06-15T13:54:22.442Z,16.60
2019-06-15T13:56:50.947Z,16.60
2019-06-15T13:59:19.418Z,16.50
2019-06-15T14:01:47.956Z,16.40
2019-06-15T14:04:16.477Z,16.40
2019-06-15T14:06:44.929Z,16.30
2019-06-15T14:09:13.390Z,16.30
2019-06-15T14:11:41.898Z,16.20
2019-06-15T14:14:10.353Z,16.10
2019-06-15T14:16:38.813Z,16.10
2019-06-15T14:19:07.329Z,16.10
2019-06-15T14:21:35.866Z,16.00
2019-06-15T14:24:04.498Z,16.10
2019-06-15T14:26:33.198Z,16.00
2019-06-15T14:29:01.668Z,16.00
2019-06-15T14:31:30.175Z,16.00
2019-06-15T14:33:58.845Z,16.10
2019-06-15T14:36:27.382Z,16.10
2019-06-15T14:38:55.893Z,16.10
2019-06-15T14:41:24.392Z,16.10
2019-06-15T14:43:52.836Z,16.20
2019-06-15T14:46:21.299Z,16.30
2019-06-15T14:49:09.200Z,16.40
2019-06-15T14:51:37.670Z,16.50
2019-06-15T14:54:06.683Z,16.60
2019-06-15T14:56:35.334Z,16.70
2019-06-15T14:59:03.857Z,16.80
2019-06-15T15:01:34.879Z,16.80
2019-06-15T15:04:02.641Z,16.90
2019-06-15T15:06:31.201Z,17.00
2019-06-15T15:08:59.723Z,17.10
2019-06-15T15:11:28.201Z,17.20
2019-06-15T15:13:56.659Z,17.30
2019-06-15T15:16:25.121Z,17.50
2019-06-15T15:18:53.617Z,17.60
2019-06-15T15:21:22.152Z,17.60
2019-06-15T15:23:50.615Z,17.80
2019-06-15T15:26:19.113Z,18.00
2019-06-15T15:28:47.713Z,18.40
2019-06-15T15:31:17.199Z,18.80
2019-06-15T15:33:47.744Z,18.70
2019-06-15T15:36:17.059Z,18.60
2019-06-15T15:38:46.824Z,18.50
2019-06-15T15:41:17.136Z,18.50
2019-06-15T15:43:46.346Z,18.50
2019-06-15T15:46:16.501Z,18.50
2019-06-15T15:48:46.937Z,18.50
2019-06-15T15:51:17.242Z,18.40
2019-06-15T15:53:46.675Z,18.20
2019-06-15T15:56:17.048Z,18.10
2019-06-15T15:58:47.123Z,18.00
2019-06-15T16:01:17.157Z,18.00
2019-06-15T16:03:47.504Z,17.90
2019-06-15T16:06:16.213Z,17.90
2019-06-15T16:08:47.137Z,18.00
2019-06-15T16:11:16.331Z,18.10
2019-06-15T16:13:46.202Z,18.30
2019-06-15T16:16:16.486Z,18.30
2019-06-15T16:18:47.013Z,18.40
2019-06-15T16:21:16.839Z,18.60
2019-06-15T16:23:46.800Z,18.50
2019-06-15T16:26:16.912Z,18.40
2019-06-15T16:28:46.199Z,18.20
2019-06-15T16:31:17.780Z,17.90
2019-06-15T16:33:46.583Z,17.60
2019-06-15T16:36:15.314Z,17.40
2019-06-15T16:38:46.770Z,17.40
2019-06-15T16:41:14.259Z,17.40
2019-06-15T16:43:42.722Z,17.40
2019-06-15T16:46:11.179Z,17.40
2019-06-15T16:48:39.787Z,17.30
2019-06-15T16:51:08.412Z,17.20
2019-06-15T16:53:37.413Z,17.30
2019-06-15T16:56:06.297Z,17.30
2019-06-15T16:58:36.333Z,17.40
2019-06-15T17:01:06.513Z,17.40
2019-06-15T17:03:36.701Z,17.50
2019-06-15T17:06:07.060Z,17.50
2019-06-15T17:08:36.789Z,17.60
2019-06-15T17:11:06.751Z,17.60
2019-06-15T17:13:37.008Z,17.70
2019-06-15T17:16:06.242Z,17.60
2019-06-15T17:18:36.486Z,17.50
2019-06-15T17:21:06.988Z,17.50
2019-06-15T17:23:35.543Z,17.50
2019-06-15T17:26:06.316Z,17.50
2019-06-15T17:28:36.742Z,17.40
2019-06-15T17:31:06.024Z,17.30
2019-06-15T17:33:38.147Z,17.10
2019-06-15T17:36:06.819Z,17.10
2019-06-15T17:38:36.991Z,17.10
2019-06-15T17:41:05.931Z,17.00
2019-06-15T17:43:36.469Z,17.00
2019-06-15T17:46:07.263Z,16.90
2019-06-15T17:48:36.945Z,16.90
2019-06-15T17:51:06.669Z,16.90
2019-06-15T17:53:36.774Z,16.90
2019-06-15T17:56:07.299Z,16.90
2019-06-15T17:58:37.134Z,16.90
2019-06-15T18:01:06.576Z,16.90
2019-06-15T18:03:49.844Z,16.90
2019-06-15T18:06:05.505Z,16.80
2019-06-15T18:08:34.073Z,16.80
2019-06-15T18:11:02.599Z,16.70
2019-06-15T18:13:31.093Z,16.70
2019-06-15T18:15:59.660Z,16.70
2019-06-15T18:18:28.129Z,16.70
2019-06-15T18:20:56.882Z,16.70
2019-06-15T18:23:25.529Z,16.70
2019-06-15T18:25:56.131Z,16.70
2019-06-15T18:28:27.238Z,16.80
2019-06-15T18:30:56.049Z,16.90
2019-06-15T18:33:27.004Z,16.90
2019-06-15T18:35:54.987Z,16.90
2019-06-15T18:38:25.680Z,17.00
2019-06-15T18:40:56.099Z,17.00
2019-06-15T18:43:26.114Z,17.00
2019-06-15T18:45:56.575Z,17.00
2019-06-15T18:48:26.381Z,17.00
2019-06-15T18:50:56.005Z,17.20
2019-06-15T18:53:26.690Z,17.10
2019-06-15T18:55:56.226Z,17.10
2019-06-15T18:58:26.212Z,17.10
2019-06-15T19:00:55.856Z,17.20
2019-06-15T19:03:26.240Z,17.20
2019-06-15T19:05:56.715Z,17.10
2019-06-15T19:08:24.776Z,17.00
2019-06-15T19:10:53.231Z,17.00
2019-06-15T19:13:21.695Z,16.90
2019-06-15T19:15:50.222Z,16.90
2019-06-15T19:18:18.683Z,16.90
2019-06-15T19:20:47.164Z,16.90
2019-06-15T19:23:15.738Z,16.90
2019-06-15T19:25:46.770Z,16.80
2019-06-15T19:28:16.564Z,16.80
2019-06-15T19:30:46.899Z,16.80
2019-06-15T19:33:15.052Z,16.80
2019-06-15T19:35:43.518Z,16.80
2019-06-15T19:38:12.070Z,16.80
2019-06-15T19:40:40.566Z,16.80
2019-06-15T19:43:09.099Z,16.80
2019-06-15T19:45:37.736Z,16.80
2019-06-15T19:48:06.847Z,16.70
2019-06-15T19:50:36.285Z,16.70
2019-06-15T19:53:07.149Z,16.70
2019-06-15T19:55:36.221Z,16.70
2019-06-15T19:58:07.258Z,16.70
2019-06-15T20:00:36.407Z,16.70
2019-06-15T20:03:06.966Z,16.80
2019-06-15T20:05:37.062Z,16.80
2019-06-15T20:08:07.034Z,16.70
2019-06-15T20:10:37.071Z,16.80
2019-06-15T20:13:07.215Z,16.80
2019-06-15T20:15:37.672Z,16.80
2019-06-15T20:18:06.863Z,16.80
2019-06-15T20:20:37.140Z,16.80
2019-06-15T20:23:07.152Z,16.80
2019-06-15T20:25:36.899Z,16.80
2019-06-15T20:28:07.168Z,16.90
2019-06-15T20:30:36.920Z,16.80
2019-06-15T20:33:07.949Z,16.80
2019-06-15T20:35:36.514Z,16.90
2019-06-15T20:38:04.996Z,16.90
2019-06-15T20:40:36.225Z,16.90
2019-06-15T20:43:03.850Z,16.90
2019-06-15T20:45:32.362Z,16.80
2019-06-15T20:48:00.903Z,16.80
2019-06-15T20:50:29.417Z,16.80
2019-06-15T20:52:57.936Z,16.90
2019-06-15T20:55:26.721Z,16.80
2019-06-15T20:57:56.804Z,16.90
2019-06-15T21:00:26.371Z,16.80
2019-06-15T21:02:56.217Z,16.70
2019-06-15T21:05:34.769Z,16.60
2019-06-15T21:07:57.530Z,16.50
2019-06-15T21:10:26.386Z,16.50
2019-06-15T21:12:55.208Z,16.40
2019-06-15T21:15:26.956Z,16.50
2019-06-15T21:17:57.091Z,16.40
2019-06-15T21:20:26.813Z,16.40
2019-06-15T21:22:57.250Z,16.40
2019-06-15T21:25:26.417Z,16.50
2019-06-15T21:27:56.822Z,16.50
2019-06-15T21:30:27.071Z,16.50
2019-06-15T21:32:56.016Z,16.50
2019-06-15T21:35:26.570Z,16.50
2019-06-15T21:37:57.147Z,16.50
2019-06-15T21:40:27.359Z,16.50
2019-06-15T21:42:56.236Z,16.40
2019-06-15T21:45:25.091Z,16.40
2019-06-15T21:47:55.861Z,16.40
2019-06-15T21:50:23.807Z,16.40
2019-06-15T21:52:52.381Z,16.40
2019-06-15T21:55:20.962Z,16.50
2019-06-15T21:57:49.441Z,16.50
2019-06-15T22:00:29.683Z,16.50
2019-06-15T22:03:01.363Z,16.50
2019-06-15T22:05:28.411Z,16.50
2019-06-15T22:07:57.072Z,16.50
2019-06-15T22:10:26.564Z,16.50
2019-06-15T22:12:57.211Z,16.50
2019-06-15T22:15:26.542Z,16.40
2019-06-15T22:17:55.200Z,16.40
2019-06-15T22:20:26.194Z,16.40
2019-06-15T22:22:53.861Z,16.50
2019-06-15T22:25:22.311Z,16.50
2019-06-15T22:27:50.772Z,16.40
2019-06-15T22:30:19.721Z,16.40
2019-06-15T22:32:48.190Z,16.40
2019-06-15T22:35:16.793Z,16.40
2019-06-15T22:37:46.798Z,16.40
2019-06-15T22:40:16.593Z,16.40
2019-06-15T22:42:47.010Z,16.40
2019-06-15T22:45:17.216Z,16.40
2019-06-15T22:47:46.810Z,16.30
2019-06-15T22:50:16.130Z,16.30
2019-06-15T22:52:47.186Z,16.30
2019-06-15T22:55:16.564Z,16.30
2019-06-15T22:57:46.145Z,16.40
2019-06-15T23:00:17.175Z,16.40
2019-06-15T23:02:46.201Z,16.40
2019-06-15T23:05:17.186Z,16.30
2019-06-15T23:07:47.275Z,16.30
2019-06-15T23:10:16.689Z,16.30
2019-06-15T23:12:46.398Z,16.30
2019-06-15T23:15:17.476Z,16.30
2019-06-15T23:17:46.663Z,16.30
2019-06-15T23:20:17.141Z,16.30
2019-06-15T23:22:46.815Z,16.30
2019-06-15T23:25:16.818Z,16.30
2019-06-15T23:27:46.933Z,16.30
2019-06-15T23:30:16.235Z,16.30
2019-06-15T23:32:46.940Z,16.30
2019-06-15T23:35:16.800Z,16.30
2019-06-15T23:37:46.547Z,16.30
2019-06-15T23:40:23.688Z,16.30
2019-06-15T23:42:52.326Z,16.30
2019-06-15T23:45:21.552Z,16.30
2019-06-15T23:47:50.412Z,16.20
2019-06-15T23:50:20.780Z,16.20
2019-06-15T23:52:49.465Z,16.20
2019-06-15T23:55:18.904Z,16.20
2019-06-15T23:57:47.504Z,16.20
